Time;durP1;ratioP1;P1;durP2;ratioP2;P2;SDS_P1;SDS_P2;PMS_P1;PMS_P2;Temp;Humidity;BMP_temperature;BMP_pressure;BME280_temperature;BME280_humidity;BME280_pressure;Samples;Min_cycle;Max_cycle;Signal;HPM_P1;HPM_P2
2023/04/15 00:01:33;;;;;;;2.90;2.00;;;;;;;5.60;100.00;96482.59;110595;1241;68787;-73
2023/04/15 00:04:03;;;;;;;2.60;1.80;;;;;;;5.55;100.00;96481.35;110635;1239;59272;-73
2023/04/15 00:06:34;;;;;;;2.30;1.70;;;;;;;5.49;100.00;96484.55;110617;1239;58956;-74
2023/04/15 00:09:03;;;;;;;2.20;1.90;;;;;;;5.41;100.00;96481.59;110569;1240;70623;-73
2023/04/15 00:11:32;;;;;;;2.30;1.80;;;;;;;5.33;100.00;96479.51;110507;1241;68433;-74
2023/04/15 00:14:02;;;;;;;2.70;1.90;;;;;;;5.28;100.00;96480.25;110667;1238;69292;-74
2023/04/15 00:16:31;;;;;;;2.50;1.80;;;;;;;5.20;100.00;96482.48;110529;1241;58940;-73
2023/04/15 00:19:00;;;;;;;2.80;2.00;;;;;;;5.15;100.00;96484.19;110668;1241;58870;-74
2023/04/15 00:21:31;;;;;;;2.60;2.20;;;;;;;5.11;100.00;96486.17;110545;1242;70684;-74
2023/04/15 00:24:00;;;;;;;3.10;2.40;;;;;;;5.07;100.00;96490.77;110629;1241;69347;-73
2023/04/15 00:26:29;;;;;;;2.80;2.20;;;;;;;4.99;100.00;96497.83;110522;1241;69315;-74
2023/04/15 00:28:59;;;;;;;3.00;2.10;;;;;;;4.91;100.00;96498.02;110403;1240;58953;-74
2023/04/15 00:31:30;;;;;;;3.20;2.30;;;;;;;4.86;100.00;96502.48;110565;1241;58926;-74
2023/04/15 00:33:59;;;;;;;2.80;2.10;;;;;;;4.80;100.00;96506.35;110587;1238;70498;-74
2023/04/15 00:36:28;;;;;;;2.30;1.80;;;;;;;4.72;100.00;96509.98;111133;1240;69627;-73
2023/04/15 00:38:58;;;;;;;1.90;1.50;;;;;;;4.63;100.00;96509.70;110942;1240;69262;-74
2023/04/15 00:41:28;;;;;;;3.30;1.70;;;;;;;4.53;100.00;96511.62;110715;1240;58944;-75
2023/04/15 00:43:59;;;;;;;2.70;1.60;;;;;;;4.48;100.00;96511.80;110708;1238;58862;-75
2023/04/15 00:46:30;;;;;;;3.20;1.60;;;;;;;4.46;100.00;96513.80;110361;1242;70671;-74
2023/04/15 00:49:03;;;;;;;1.90;1.20;;;;;;;4.46;100.00;96513.27;110414;1242;69253;-74
2023/04/15 00:51:35;;;;;;;1.70;1.60;;;;;;;4.45;100.00;96508.54;110253;1241;69138;-75
2023/04/15 00:54:06;;;;;;;2.10;1.80;;;;;;;4.42;100.00;96506.64;110293;1243;59350;-74
2023/04/15 00:56:39;;;;;;;3.80;3.10;;;;;;;4.43;100.00;96507.45;110287;1242;58879;-74
2023/04/15 00:59:09;;;;;;;2.60;2.10;;;;;;;4.46;100.00;96506.60;110330;1243;69931;-73
2023/04/15 01:01:38;;;;;;;2.50;1.90;;;;;;;4.47;100.00;96498.06;110276;1240;67434;-76
2023/04/15 01:04:11;;;;;;;4.20;2.30;;;;;;;4.48;100.00;96491.10;110306;1240;68794;-74
2023/04/15 01:06:41;;;;;;;3.80;2.30;;;;;;;4.52;100.00;96488.40;110303;1240;58900;-74
2023/04/15 01:09:11;;;;;;;2.00;1.60;;;;;;;4.52;100.00;96494.10;110286;1243;58912;-74
2023/04/15 01:11:41;;;;;;;2.50;1.80;;;;;;;4.50;100.00;96493.23;110345;1241;70604;-74
2023/04/15 01:14:11;;;;;;;3.00;2.30;;;;;;;4.48;100.00;96498.48;110249;1245;69045;-74
2023/04/15 01:16:45;;;;;;;3.70;3.10;;;;;;;4.47;100.00;96494.44;110320;1241;67870;-73
2023/04/15 01:19:19;;;;;;;4.70;2.80;;;;;;;4.42;100.00;96494.23;110379;1242;58963;-74
2023/04/15 01:21:49;;;;;;;5.80;3.30;;;;;;;4.33;100.00;96496.88;110211;1241;58902;-74
2023/04/15 01:24:20;;;;;;;5.40;3.00;;;;;;;4.20;100.00;96493.02;110319;1243;70001;-75
2023/04/15 01:26:52;;;;;;;5.70;3.00;;;;;;;4.08;100.00;96496.36;110264;1244;69498;-75
2023/04/15 01:29:23;;;;;;;4.10;2.60;;;;;;;3.99;100.00;96494.31;110280;1241;69285;-75
2023/04/15 01:31:54;;;;;;;3.60;2.70;;;;;;;3.89;100.00;96488.56;110256;1241;58938;-75
2023/04/15 01:34:27;;;;;;;4.60;2.70;;;;;;;3.77;100.00;96487.69;110372;1242;58876;-72
2023/04/15 01:36:58;;;;;;;3.90;2.50;;;;;;;3.69;100.00;96489.78;110422;1242;69782;-73
2023/04/15 01:39:27;;;;;;;4.00;2.60;;;;;;;3.62;100.00;96491.41;110481;1242;69120;-74
2023/04/15 01:41:58;;;;;;;4.50;2.90;;;;;;;3.57;100.00;96492.69;110416;1241;68558;-74
2023/04/15 01:44:29;;;;;;;5.40;3.50;;;;;;;3.56;100.00;96493.25;110316;1241;58940;-75
2023/04/15 01:46:59;;;;;;;5.50;3.80;;;;;;;3.55;100.00;96496.07;110731;1241;58910;-75
2023/04/15 01:49:30;;;;;;;4.50;3.60;;;;;;;3.53;100.00;96492.75;110467;1241;70416;-74
2023/04/15 01:52:01;;;;;;;4.40;3.00;;;;;;;3.50;100.00;96491.39;110709;1240;68227;-74
2023/04/15 01:54:32;;;;;;;4.70;3.80;;;;;;;3.48;100.00;96492.38;110668;1242;69266;-74
2023/04/15 01:57:02;;;;;;;5.90;3.40;;;;;;;3.47;100.00;96491.39;110648;1239;58893;-73
2023/04/15 01:59:31;;;;;;;4.20;3.00;;;;;;;3.43;100.00;96497.52;110442;1242;58875;-75
2023/04/15 02:02:02;;;;;;;;;;;;;;;3.38;100.00;96498.15;110394;1242;69616;-74
2023/04/15 02:04:32;;;;;;;3.20;2.30;;;;;;;3.31;100.00;96502.13;110618;1240;68543;-74
2023/04/15 02:07:04;;;;;;;3.90;2.50;;;;;;;3.26;100.00;96506.02;110571;1240;68729;-74
2023/04/15 02:09:35;;;;;;;4.10;2.10;;;;;;;3.21;100.00;96507.53;110502;1239;58907;-74
2023/04/15 02:12:05;;;;;;;3.20;2.60;;;;;;;3.18;100.00;96507.02;110352;1243;58902;-74
2023/04/15 02:14:36;;;;;;;4.10;2.20;;;;;;;3.16;100.00;96504.77;110391;1242;69782;-74
2023/04/15 02:17:08;;;;;;;3.90;2.30;;;;;;;3.18;100.00;96502.24;110497;1239;69090;-75
2023/04/15 02:19:40;;;;;;;3.10;2.30;;;;;;;3.18;100.00;96494.98;110578;1238;68522;-74
2023/04/15 02:22:17;;;;;;;3.50;2.60;;;;;;;3.20;100.00;96491.27;110653;1241;58886;-74
2023/04/15 02:24:49;;;;;;;5.20;3.50;;;;;;;3.24;100.00;96485.52;110566;1241;58873;-74
2023/04/15 02:27:19;;;;;;;6.50;3.20;;;;;;;3.30;100.00;96486.52;110638;1238;70474;-74
2023/04/15 02:29:51;;;;;;;4.20;2.80;;;;;;;3.34;100.00;96482.70;110665;1241;68600;-74
2023/04/15 02:32:23;;;;;;;4.70;2.70;;;;;;;3.36;100.00;96476.87;110504;1241;69278;-74
2023/04/15 02:34:56;;;;;;;3.50;2.50;;;;;;;3.38;100.00;96475.89;110596;1238;58950;-74
2023/04/15 02:37:29;;;;;;;4.20;3.40;;;;;;;3.39;100.00;96478.60;110743;1238;58928;-74
2023/04/15 02:39:59;;;;;;;4.70;3.30;;;;;;;3.43;100.00;96475.30;110766;1238;70416;-74
2023/04/15 02:42:30;;;;;;;;;;;;;;;3.44;100.00;96479.00;110516;1242;68273;-74
2023/04/15 02:45:01;;;;;;;3.80;2.70;;;;;;;3.43;100.00;96482.14;110738;1238;68674;-73
2023/04/15 02:47:34;;;;;;;3.30;2.50;;;;;;;3.43;100.00;96481.29;110418;1242;58927;-73
2023/04/15 02:50:10;;;;;;;4.50;2.70;;;;;;;3.46;100.00;96478.02;110451;1242;58875;-73
2023/04/15 02:52:41;;;;;;;3.90;2.60;;;;;;;3.49;100.00;96477.15;110469;1241;70609;-74
2023/04/15 02:55:10;;;;;;;3.70;2.30;;;;;;;3.53;100.00;96478.62;110449;1244;69081;-74
2023/04/15 02:57:40;;;;;;;4.20;3.30;;;;;;;3.55;100.00;96479.88;110444;1244;68507;-74
2023/04/15 03:00:11;;;;;;;4.60;2.90;;;;;;;3.54;100.00;96477.19;110552;1240;58940;-74
2023/04/15 03:02:45;;;;;;;3.20;2.30;;;;;;;3.53;100.00;96473.63;110607;1241;58886;-75
2023/04/15 03:05:15;;;;;;;2.30;2.00;;;;;;;3.54;100.00;96473.41;110672;1242;71180;-74
2023/04/15 03:07:49;;;;;;;3.60;2.00;;;;;;;3.55;100.00;96477.48;110474;1242;69838;-75
2023/04/15 03:10:20;;;;;;;3.40;2.50;;;;;;;3.54;100.00;96481.82;110621;1240;67784;-74
2023/04/15 03:12:51;;;;;;;3.50;2.30;;;;;;;3.53;100.00;96482.94;110617;1238;58904;-75
2023/04/15 03:15:23;;;;;;;3.90;2.80;;;;;;;3.51;100.00;96483.40;110490;1240;58942;-75
2023/04/15 03:17:54;;;;;;;4.00;2.50;;;;;;;3.50;100.00;96485.52;110450;1242;70608;-74
2023/04/15 03:20:23;;;;;;;3.60;2.40;;;;;;;3.48;100.00;96488.95;110300;1240;68618;-74
2023/04/15 03:22:53;;;;;;;2.30;2.10;;;;;;;3.44;100.00;96488.79;110431;1242;69113;-74
2023/04/15 03:25:22;;;;;;;3.50;2.30;;;;;;;3.41;100.00;96492.41;110748;1241;58937;-75
2023/04/15 03:27:51;;;;;;;2.90;2.40;;;;;;;3.40;100.00;96495.08;110672;1241;58852;-74
2023/04/15 03:30:21;;;;;;;4.10;2.60;;;;;;;3.38;100.00;96499.19;110702;1241;70463;-74
2023/04/15 03:32:51;;;;;;;3.90;2.90;;;;;;;3.36;100.00;96501.34;110535;1242;68655;-75
2023/04/15 03:35:21;;;;;;;4.80;2.60;;;;;;;3.32;100.00;96500.55;110708;1248;69857;-74
2023/04/15 03:37:51;;;;;;;3.30;2.50;;;;;;;3.29;100.00;96505.35;110671;1242;58898;-74
2023/04/15 03:40:21;;;;;;;3.10;2.20;;;;;;;3.27;100.00;96509.77;110753;1241;58966;-74
2023/04/15 03:42:50;;;;;;;4.20;3.80;;;;;;;3.26;100.00;96515.16;110621;1238;69628;-74
2023/04/15 03:45:19;;;;;;;3.60;3.10;;;;;;;3.20;100.00;96523.97;110576;1240;69181;-74
2023/04/15 03:47:48;;;;;;;3.90;3.10;;;;;;;3.12;100.00;96525.66;110739;1241;69390;-73
2023/04/15 03:50:17;;;;;;;6.10;4.00;;;;;;;3.04;100.00;96524.16;110736;1241;58912;-73
2023/04/15 03:52:46;;;;;;;3.70;2.70;;;;;;;3.01;100.00;96519.38;110686;1240;58872;-73
2023/04/15 03:55:19;;;;;;;3.80;2.70;;;;;;;3.01;100.00;96518.87;110648;1238;69652;-73
2023/04/15 03:57:48;;;;;;;3.90;2.70;;;;;;;3.04;100.00;96523.52;110748;1240;68240;-73
2023/04/15 04:00:17;;;;;;;4.20;2.80;;;;;;;3.08;100.00;96524.83;110696;1241;69306;-73
2023/04/15 04:02:46;;;;;;;4.40;3.10;;;;;;;3.20;100.00;96527.44;110642;1241;58889;-75
2023/04/15 04:05:16;;;;;;;6.10;3.80;;;;;;;3.37;100.00;96530.61;110488;1241;58889;-72
2023/04/15 04:07:46;;;;;;;6.50;4.70;;;;;;;3.55;100.00;96534.16;110764;1240;70788;-73
2023/04/15 04:10:15;;;;;;;4.30;2.80;;;;;;;3.72;100.00;96539.36;110681;1240;68398;-74
2023/04/15 04:12:44;;;;;;;4.80;3.00;;;;;;;3.96;100.00;96542.23;110726;1241;69245;-73
2023/04/15 04:15:13;;;;;;;2.70;2.20;;;;;;;4.21;100.00;96542.47;110511;1238;58894;-73
2023/04/15 04:17:42;;;;;;;3.60;2.00;;;;;;;4.45;100.00;96536.66;110643;1240;58883;-74
2023/04/15 04:20:12;;;;;;;2.30;1.70;;;;;;;4.68;100.00;96536.58;110690;1238;69455;-74
2023/04/15 04:22:41;;;;;;;2.70;2.30;;;;;;;4.89;100.00;96522.19;110697;1242;69825;-74
2023/04/15 04:25:10;;;;;;;3.70;2.50;;;;;;;5.04;100.00;96513.55;110757;1238;69239;-75
2023/04/15 04:27:39;;;;;;;3.60;2.80;;;;;;;5.20;100.00;96512.70;110617;1241;58885;-75
2023/04/15 04:30:08;;;;;;;2.90;2.50;;;;;;;5.40;100.00;96516.96;110667;1241;58893;-75
2023/04/15 04:32:37;;;;;;;4.50;3.00;;;;;;;5.68;100.00;96521.95;110599;1241;70400;-75
2023/04/15 04:35:07;;;;;;;3.40;2.20;;;;;;;6.00;100.00;96529.64;110573;1241;69238;-75
2023/04/15 04:37:37;;;;;;;4.50;4.00;;;;;;;6.26;100.00;96531.15;110605;1241;68637;-76
2023/04/15 04:40:08;;;;;;;8.70;6.90;;;;;;;6.33;100.00;96529.14;110766;1241;58959;-74
2023/04/15 04:42:37;;;;;;;6.40;5.70;;;;;;;6.30;100.00;96530.76;110726;1241;58940;-74
2023/04/15 04:45:08;;;;;;;9.90;6.80;;;;;;;6.16;100.00;96532.56;110681;1241;70578;-76
2023/04/15 04:47:36;;;;;;;7.50;5.70;;;;;;;5.99;100.00;96537.01;110575;1241;69161;-76
2023/04/15 04:50:08;;;;;;;5.90;5.00;;;;;;;5.86;100.00;96539.44;110706;1238;69269;-75
2023/04/15 04:52:37;;;;;;;5.90;4.70;;;;;;;5.87;100.00;96544.40;110603;1241;58932;-75
2023/04/15 04:55:07;;;;;;;5.60;4.80;;;;;;;6.02;100.00;96544.09;110505;1240;58945;-74
2023/04/15 04:57:38;;;;;;;4.90;4.30;;;;;;;6.16;100.00;96539.48;110473;1241;70515;-75
2023/04/15 05:00:08;;;;;;;7.00;6.20;;;;;;;6.37;100.00;96540.98;110492;1241;69583;-75
2023/04/15 05:02:47;;;;;;;;;;;;;;;6.62;100.00;96541.83;110510;1241;69267;-76
2023/04/15 05:05:16;;;;;;;5.00;3.90;;;;;;;6.97;100.00;96542.06;110425;1240;58860;-76
2023/04/15 05:07:45;;;;;;;4.40;3.30;;;;;;;7.39;100.00;96538.66;110534;1241;58886;-74
2023/04/15 05:10:16;;;;;;;4.50;3.20;;;;;;;7.65;100.00;96536.58;110528;1241;69890;-75
2023/04/15 05:12:45;;;;;;;4.30;3.60;;;;;;;7.85;95.65;96539.77;110664;1240;69093;-75
2023/04/15 05:15:14;;;;;;;3.60;2.80;;;;;;;8.17;94.73;96539.55;111084;1241;69302;-74
2023/04/15 05:17:43;;;;;;;4.50;2.90;;;;;;;8.59;97.39;96539.83;110691;1241;58795;-76
2023/04/15 05:20:13;;;;;;;3.70;2.90;;;;;;;8.96;92.33;96541.57;110431;1241;58825;-76
2023/04/15 05:22:42;;;;;;;4.40;3.80;;;;;;;9.30;90.22;96533.05;110419;1245;69819;-76
2023/04/15 05:25:11;;;;;;;4.40;3.50;;;;;;;9.52;88.80;96531.77;110661;1240;68325;-76
2023/04/15 05:27:41;;;;;;;4.40;3.00;;;;;;;9.93;91.06;96533.21;110523;1241;68232;-74
2023/04/15 05:30:09;;;;;;;4.50;3.30;;;;;;;10.36;88.63;96535.40;110514;1241;58892;-75
2023/04/15 05:32:41;;;;;;;2.40;1.70;;;;;;;10.73;87.81;96543.16;110464;1242;58798;-76
2023/04/15 05:35:10;;;;;;;2.20;1.60;;;;;;;11.24;86.48;96541.29;110427;1241;70470;-73
2023/04/15 05:37:39;;;;;;;2.80;2.00;;;;;;;11.40;74.61;96540.37;110534;1241;69306;-75
2023/04/15 05:40:11;;;;;;;3.10;2.10;;;;;;;11.47;74.90;96543.19;110511;1241;69288;-76
2023/04/15 05:42:42;;;;;;;3.70;2.50;;;;;;;11.81;76.53;96541.23;110590;1241;58879;-75
2023/04/15 05:45:11;;;;;;;4.20;2.60;;;;;;;12.19;75.05;96540.10;110540;1238;58831;-74
2023/04/15 05:47:39;;;;;;;3.50;2.60;;;;;;;12.41;73.07;96543.61;110708;1241;70624;-73
2023/04/15 05:50:09;;;;;;;4.40;2.70;;;;;;;12.54;69.27;96548.23;110766;1242;69190;-74
2023/04/15 05:52:37;;;;;;;3.60;2.00;;;;;;;12.75;67.14;96555.44;110615;1241;69340;-75
2023/04/15 05:55:06;;;;;;;2.80;1.60;;;;;;;12.87;67.35;96557.97;110466;1241;58942;-74
2023/04/15 05:57:36;;;;;;;2.70;1.90;;;;;;;13.11;68.41;96559.58;110467;1241;58860;-74
2023/04/15 06:00:05;;;;;;;;;;;;;;;13.53;70.68;96557.95;110621;1238;69884;-74
2023/04/15 06:02:36;;;;;;;2.50;2.30;;;;;;;13.85;66.26;96557.10;110679;1241;69559;-73
2023/04/15 06:05:09;;;;;;;3.20;2.00;;;;;;;14.09;63.95;96556.96;110556;1242;70205;-74
2023/04/15 06:07:38;;;;;;;3.50;1.80;;;;;;;14.03;61.63;96560.49;110497;1242;58918;-73
2023/04/15 06:10:08;;;;;;;3.10;2.00;;;;;;;14.29;63.80;96560.30;110411;1242;58831;-73
2023/04/15 06:12:36;;;;;;;2.70;1.90;;;;;;;14.58;64.13;96564.23;110659;1238;69835;-73
2023/04/15 06:15:08;;;;;;;2.80;2.00;;;;;;;14.83;63.26;96561.84;110730;1238;69884;-75
2023/04/15 06:17:37;;;;;;;3.40;2.20;;;;;;;15.12;60.09;96563.04;110572;1242;69895;-75
2023/04/15 06:20:07;;;;;;;3.90;2.50;;;;;;;15.08;60.47;96561.14;111198;1238;58872;-75
2023/04/15 06:22:40;;;;;;;2.20;1.50;;;;;;;15.34;59.49;96561.59;111945;1240;57885;-75
2023/04/15 06:25:09;;;;;;;2.80;1.90;;;;;;;15.05;57.62;96559.76;110610;1242;70367;-73
2023/04/15 06:27:39;;;;;;;2.40;1.50;;;;;;;15.34;59.38;96564.91;110724;1241;69078;-73
2023/04/15 06:30:08;;;;;;;;;;;;;;;15.64;58.57;96565.09;110719;1239;69694;-74
2023/04/15 06:32:37;;;;;;;2.80;1.20;;;;;;;16.03;59.16;96564.45;110591;1241;58887;-73
2023/04/15 06:35:05;;;;;;;1.90;1.30;;;;;;;16.39;57.98;96570.92;110308;1246;58858;-73
2023/04/15 06:37:35;;;;;;;3.00;1.50;;;;;;;16.56;56.80;96569.66;110662;1238;69821;-74
2023/04/15 06:40:05;;;;;;;3.40;1.60;;;;;;;16.10;54.69;96565.98;110396;1244;69262;-73
2023/04/15 06:42:36;;;;;;;1.90;1.40;;;;;;;16.13;55.42;96566.15;110706;1240;68516;-73
2023/04/15 06:45:05;;;;;;;1.90;1.10;;;;;;;16.32;55.87;96572.89;110686;1241;58862;-74
2023/04/15 06:47:35;;;;;;;1.70;1.10;;;;;;;16.50;54.31;96577.03;110446;1238;58920;-72
2023/04/15 06:50:04;;;;;;;1.10;0.80;;;;;;;16.61;54.43;96576.91;110584;1241;71182;-71
2023/04/15 06:52:33;;;;;;;1.70;1.00;;;;;;;16.66;53.35;96581.95;110554;1240;68355;-71
2023/04/15 06:55:01;;;;;;;1.80;0.70;;;;;;;16.74;52.42;96581.92;110716;1239;69257;-74
2023/04/15 06:57:30;;;;;;;1.20;0.90;;;;;;;16.92;51.60;96586.02;110540;1238;58890;-73
2023/04/15 07:00:04;;;;;;;1.10;0.90;;;;;;;16.99;51.69;96587.30;110546;1240;58886;-73
2023/04/15 07:02:33;;;;;;;1.20;0.90;;;;;;;17.21;51.46;96594.02;110564;1241;70545;-73
2023/04/15 07:05:03;;;;;;;1.70;0.90;;;;;;;17.37;50.33;96596.05;110557;1242;69770;-72
2023/04/15 07:07:32;;;;;;;1.70;0.80;;;;;;;17.57;51.09;96594.52;110463;1244;68555;-72
2023/04/15 07:10:02;;;;;;;1.70;1.10;;;;;;;17.62;50.17;96597.80;110505;1241;58875;-72
2023/04/15 07:12:31;;;;;;;1.80;1.00;;;;;;;17.49;49.87;96599.09;110505;1241;58857;-71
2023/04/15 07:15:00;;;;;;;3.20;0.80;;;;;;;17.21;49.42;96594.88;110585;1241;71009;-71
2023/04/15 07:17:29;;;;;;;1.50;1.00;;;;;;;16.71;49.76;96590.36;110486;1241;68273;-71
2023/04/15 07:19:58;;;;;;;1.70;0.80;;;;;;;16.70;50.63;96590.35;110478;1241;68575;-72
2023/04/15 07:22:27;;;;;;;1.90;1.30;;;;;;;16.92;50.69;96591.58;110321;1240;58931;-73
2023/04/15 07:24:56;;;;;;;1.40;1.00;;;;;;;16.98;51.15;96596.80;111508;1239;58873;-72
2023/04/15 07:27:26;;;;;;;2.10;1.10;;;;;;;17.40;50.89;96602.41;111782;1241;70043;-70
2023/04/15 07:29:55;;;;;;;1.60;0.90;;;;;;;17.84;50.61;96598.78;110560;1241;69254;-72
2023/04/15 07:32:25;;;;;;;1.60;1.10;;;;;;;18.16;49.46;96602.14;110623;1242;69197;-71
2023/04/15 07:34:53;;;;;;;2.60;1.20;;;;;;;18.43;47.58;96600.65;110482;1242;58950;-71
2023/04/15 07:37:22;;;;;;;1.40;0.80;;;;;;;18.52;46.82;96602.21;110481;1241;58940;-73
2023/04/15 07:39:51;;;;;;;1.60;1.10;;;;;;;18.54;47.51;96604.74;110482;1242;71190;-70
2023/04/15 07:42:21;;;;;;;1.80;1.00;;;;;;;18.81;46.97;96609.89;110479;1241;69188;-72
2023/04/15 07:44:50;;;;;;;1.70;1.10;;;;;;;18.88;47.23;96610.09;110478;1242;69907;-72
2023/04/15 07:47:20;;;;;;;1.60;1.00;;;;;;;19.24;47.23;96611.49;110467;1242;58889;-71
2023/04/15 07:49:50;;;;;;;1.90;1.10;;;;;;;19.17;46.09;96608.77;110384;1241;58943;-71
2023/04/15 07:52:19;;;;;;;1.70;1.10;;;;;;;19.20;45.50;96610.88;110288;1241;69716;-72
2023/04/15 07:54:48;;;;;;;2.00;1.20;;;;;;;18.64;45.41;96613.48;110376;1242;69301;-71
2023/04/15 07:57:17;;;;;;;2.90;1.30;;;;;;;17.86;46.33;96617.44;110457;1242;69126;-73
2023/04/15 07:59:46;;;;;;;3.10;1.30;;;;;;;17.20;48.34;96619.85;110321;1240;58932;-72
2023/04/15 08:02:15;;;;;;;1.80;1.10;;;;;;;16.98;49.12;96615.05;110536;1241;59181;-71
2023/04/15 08:04:44;;;;;;;3.50;1.60;;;;;;;17.21;48.19;96612.13;110440;1241;70767;-69
2023/04/15 08:07:13;;;;;;;2.50;1.40;;;;;;;17.61;47.79;96613.92;110466;1240;69232;-72
2023/04/15 08:09:42;;;;;;;2.60;1.30;;;;;;;17.93;47.55;96606.99;110462;1241;68378;-70
2023/04/15 08:12:12;;;;;;;4.00;3.60;;;;;;;18.10;47.39;96608.44;110472;1241;58889;-70
2023/04/15 08:14:41;;;;;;;2.50;1.30;;;;;;;18.29;46.42;96609.03;110452;1241;58859;-71
2023/04/15 08:17:10;;;;;;;2.30;1.40;;;;;;;18.48;45.92;96608.51;110486;1243;70579;-69
2023/04/15 08:19:39;;;;;;;1.70;1.00;;;;;;;19.00;42.99;96606.67;110540;1241;68800;-71
2023/04/15 08:22:11;;;;;;;1.60;1.10;;;;;;;19.44;42.21;96608.98;110421;1241;68653;-72
2023/04/15 08:24:45;;;;;;;2.50;1.00;;;;;;;19.73;39.54;96610.95;110468;1241;58890;-72
2023/04/15 08:27:14;;;;;;;2.20;1.10;;;;;;;19.72;39.60;96609.35;110334;1244;58869;-71
2023/04/15 08:29:44;;;;;;;1.30;1.10;;;;;;;19.23;41.16;96611.36;110960;1239;70538;-71
2023/04/15 08:32:16;;;;;;;1.30;0.90;;;;;;;19.04;40.22;96612.42;111892;1241;70193;-72
2023/04/15 08:34:44;;;;;;;4.10;1.30;;;;;;;18.73;40.73;96616.94;110514;1239;70215;-71
2023/04/15 08:37:13;;;;;;;2.60;1.00;;;;;;;18.33;41.45;96619.45;110649;1241;58866;-69
2023/04/15 08:39:44;;;;;;;1.70;1.20;;;;;;;18.01;43.08;96624.64;110506;1241;58806;-70
2023/04/15 08:42:18;;;;;;;2.10;1.20;;;;;;;17.78;43.87;96632.27;110665;1241;71154;-70
2023/04/15 08:44:48;;;;;;;1.20;0.90;;;;;;;17.36;43.13;96627.33;110570;1241;69099;-71
2023/04/15 08:47:19;;;;;;;;;;;;;;;17.63;43.04;96627.79;110498;1241;68779;-71
2023/04/15 08:49:52;;;;;;;1.70;0.80;;;;;;;18.21;43.23;96619.92;110484;1241;58865;-69
2023/04/15 08:52:21;;;;;;;2.90;1.20;;;;;;;18.59;42.92;96621.30;110625;1241;59290;-71
2023/04/15 08:54:51;;;;;;;2.30;1.20;;;;;;;18.88;41.58;96616.77;110506;1241;71196;-70
2023/04/15 08:57:22;;;;;;;1.30;1.10;;;;;;;19.16;40.80;96611.81;110679;1240;68332;-71
2023/04/15 08:59:53;;;;;;;1.40;1.10;;;;;;;19.38;41.14;96614.48;110673;1241;68616;-71
2023/04/15 09:02:25;;;;;;;1.20;0.80;;;;;;;20.05;39.64;96612.57;110525;1241;58959;-72
2023/04/15 09:04:54;;;;;;;1.30;0.80;;;;;;;20.33;39.57;96612.88;110646;1241;58796;-69
2023/04/15 09:07:22;;;;;;;1.90;1.00;;;;;;;20.31;37.81;96612.64;110490;1238;71123;-70
2023/04/15 09:09:51;;;;;;;2.00;1.00;;;;;;;19.83;37.95;96610.47;110411;1238;69258;-72
2023/04/15 09:12:21;;;;;;;1.60;0.90;;;;;;;19.61;38.59;96615.16;110778;1241;68540;-71
2023/04/15 09:14:50;;;;;;;1.50;1.00;;;;;;;19.67;37.85;96612.17;110686;1238;58890;-71
2023/04/15 09:17:23;;;;;;;2.20;1.00;;;;;;;19.52;38.37;96612.61;110569;1242;58871;-72
2023/04/15 09:20:13;;;;;;;1.40;1.00;;;;;;;19.85;38.30;96617.31;110618;1242;70365;-70
2023/04/15 09:22:44;;;;;;;1.30;0.90;;;;;;;19.77;38.64;96616.38;110420;1242;69840;-71
2023/04/15 09:25:23;;;;;;;2.60;1.20;;;;;;;19.60;40.28;96613.11;110652;1240;69237;-72
2023/04/15 09:28:00;;;;;;;1.80;1.10;;;;;;;19.61;39.62;96614.34;110607;1243;58884;-71
2023/04/15 09:30:30;;;;;;;2.30;0.90;;;;;;;19.10;40.58;96612.55;110794;1240;58815;-72
2023/04/15 09:33:01;;;;;;;1.50;0.90;;;;;;;18.99;39.73;96607.17;110962;1240;71205;-71
2023/04/15 09:35:29;;;;;;;1.70;1.00;;;;;;;19.18;40.02;96605.60;110560;1241;69791;-71
2023/04/15 09:38:06;;;;;;;2.50;1.00;;;;;;;18.89;39.99;96606.17;110684;1238;68582;-70
2023/04/15 09:40:40;;;;;;;1.80;1.00;;;;;;;17.83;41.68;96605.25;110796;1241;58937;-72
2023/04/15 09:43:11;;;;;;;2.00;1.00;;;;;;;17.66;42.58;96610.36;110627;1238;58866;-72
2023/04/15 09:45:50;;;;;;;2.20;1.00;;;;;;;17.28;43.25;96611.88;110574;1242;71021;-71
2023/04/15 09:48:21;;;;;;;1.20;0.80;;;;;;;17.03;43.76;96608.98;110519;1242;69316;-69
2023/04/15 09:50:52;;;;;;;2.00;1.00;;;;;;;16.23;45.31;96603.09;110467;1240;69876;-70
2023/04/15 09:53:23;;;;;;;1.80;1.00;;;;;;;16.14;46.16;96600.83;110601;1241;58935;-71
2023/04/15 09:55:57;;;;;;;1.20;0.80;;;;;;;15.53;47.42;96612.09;110586;1242;58888;-72
2023/04/15 09:58:27;;;;;;;1.60;1.00;;;;;;;15.51;49.26;96616.92;110579;1241;70528;-72
2023/04/15 10:00:58;;;;;;;2.20;0.90;;;;;;;15.08;53.12;96617.73;110226;1242;477784;-73
2023/04/15 10:03:32;;;;;;;2.70;1.00;;;;;;;15.19;56.24;96614.33;110524;1241;69254;-73
2023/04/15 10:06:03;;;;;;;1.60;0.90;;;;;;;15.70;55.77;96609.42;110592;1241;58863;-72
2023/04/15 10:08:33;;;;;;;1.60;0.90;;;;;;;16.02;58.38;96608.83;110606;1242;58875;-70
2023/04/15 10:11:03;;;;;;;2.90;1.20;;;;;;;16.49;58.21;96607.84;110740;1238;71139;-72
2023/04/15 10:13:34;;;;;;;2.40;1.30;;;;;;;17.47;56.63;96610.42;110743;1238;67565;-70
2023/04/15 10:16:11;;;;;;;2.10;1.30;;;;;;;18.31;53.75;96607.34;110572;1242;68417;-71
2023/04/15 10:18:46;;;;;;;1.80;0.90;;;;;;;18.82;50.79;96601.49;110662;1240;58882;-72
2023/04/15 10:21:17;;;;;;;1.30;0.90;;;;;;;19.37;44.23;96598.16;110545;1238;58880;-72
2023/04/15 10:23:47;;;;;;;1.10;0.70;;;;;;;20.22;42.64;96593.85;110533;1238;70577;-71
2023/04/15 10:26:16;;;;;;;3.70;1.10;;;;;;;20.58;38.32;96588.14;110464;1242;68451;-71
2023/04/15 10:28:47;;;;;;;2.30;1.00;;;;;;;21.07;39.44;96581.48;110590;1240;69858;-71
2023/04/15 10:31:17;;;;;;;1.70;0.90;;;;;;;21.23;39.39;96581.25;110509;1238;58888;-72
2023/04/15 10:33:47;;;;;;;1.00;0.70;;;;;;;20.58;38.22;96574.01;110593;1241;58959;-72
2023/04/15 10:36:19;;;;;;;2.40;1.00;;;;;;;20.79;39.59;96576.31;111509;1238;69860;-72
2023/04/15 10:38:48;;;;;;;1.80;0.80;;;;;;;20.98;37.68;96572.77;111161;1241;68487;-72
2023/04/15 10:41:19;;;;;;;1.50;1.10;;;;;;;20.46;37.78;96572.98;110624;1242;69389;-72
2023/04/15 10:43:59;;;;;;;2.00;0.90;;;;;;;20.40;36.72;96567.41;110667;1242;58868;-72
2023/04/15 10:46:46;;;;;;;1.60;0.90;;;;;;;20.42;37.11;96566.08;110606;1242;58922;-70
2023/04/15 10:49:23;;;;;;;2.70;0.90;;;;;;;19.58;38.12;96565.02;110396;1240;71158;-70
2023/04/15 10:51:57;;;;;;;2.30;1.00;;;;;;;19.19;39.54;96557.99;110640;1240;68530;-71
2023/04/15 10:54:25;;;;;;;2.60;0.90;;;;;;;19.92;38.00;96554.16;110522;1239;68784;-71
2023/04/15 10:57:01;;;;;;;2.70;1.00;;;;;;;20.59;37.87;96553.86;110542;1241;58935;-71
2023/04/15 10:59:57;;;;;;;1.70;0.90;;;;;;;20.50;35.82;96551.89;110635;1242;58887;-70
2023/04/15 11:02:45;;;;;;;1.50;0.90;;;;;;;21.21;33.73;96552.68;110562;1241;70390;-71
2023/04/15 11:05:15;;;;;;;1.30;0.80;;;;;;;20.76;34.51;96547.99;110628;1241;69724;-72
2023/04/15 11:07:55;;;;;;;1.60;0.80;;;;;;;21.96;33.68;96546.95;110571;1239;69609;-71
2023/04/15 11:10:24;;;;;;;2.40;0.70;;;;;;;23.01;30.67;96550.42;110502;1241;58934;-72
2023/04/15 11:12:57;;;;;;;1.90;0.80;;;;;;;23.41;29.01;96553.14;110498;1240;58904;-71
2023/04/15 11:15:29;;;;;;;1.30;0.90;;;;;;;22.72;30.70;96552.77;110546;1240;69624;-69
2023/04/15 11:18:13;;;;;;;2.40;0.90;;;;;;;22.10;30.53;96554.45;110573;1242;69830;-71
2023/04/15 11:20:46;;;;;;;2.00;0.90;;;;;;;22.47;29.50;96556.61;110549;1238;68316;-71
2023/04/15 11:23:16;;;;;;;1.50;0.80;;;;;;;22.13;29.16;96560.39;110465;1242;58905;-71
2023/04/15 11:25:47;;;;;;;1.10;0.70;;;;;;;22.41;28.56;96559.85;110492;1241;58805;-71
2023/04/15 11:28:16;;;;;;;2.20;1.00;;;;;;;22.29;29.45;96561.46;110563;1242;70426;-71
2023/04/15 11:30:45;;;;;;;2.50;0.80;;;;;;;22.76;28.71;96562.14;110578;1241;69217;-71
2023/04/15 11:33:13;;;;;;;1.80;0.90;;;;;;;22.57;28.34;96562.16;110548;1242;68692;-71
2023/04/15 11:35:42;;;;;;;2.10;0.90;;;;;;;22.12;29.21;96565.13;111782;1238;58876;-71
2023/04/15 11:38:12;;;;;;;;;;;;;;;22.25;29.47;96562.86;111587;1240;57630;-72
2023/04/15 11:40:42;;;;;;;1.80;0.80;;;;;;;22.82;29.00;96557.04;110717;1242;69816;-72
2023/04/15 11:43:20;;;;;;;2.10;1.00;;;;;;;23.26;28.69;96561.41;110613;1240;69217;-72